Time;durP1;ratioP1;P1;durP2;ratioP2;P2;SDS_P1;SDS_P2;PMS_P1;PMS_P2;Temp;Humidity;BMP_temperature;BMP_pressure;BME280_temperature;BME280_humidity;BME280_pressure;Samples;Min_cycle;Max_cycle;Signal;HPM_P1;HPM_P2
2021/11/30 00:01:17;;;;;;;;;;;;;;;0.34;89.58;96349.59;5095421;28;19953;-73
2021/11/30 00:03:44;;;;;;;;;;;;;;;0.33;89.68;96359.09;5096567;28;19963;-73
2021/11/30 00:06:10;;;;;;;;;;;;;;;0.32;89.74;96357.50;5095812;28;19964;-73
2021/11/30 00:08:37;;;;;;;;;;;;;;;0.32;89.65;96352.34;5096383;28;19974;-73
2021/11/30 00:11:06;;;;;;;;;;;;;;;0.32;89.81;96356.69;5096489;28;19952;-73
2021/11/30 00:13:33;;;;;;;;;;;;;;;0.33;90.25;96359.09;5096236;28;19973;-74
2021/11/30 00:16:00;;;;;;;;;;;;;;;0.34;89.49;96372.81;5096919;28;19960;-74
2021/11/30 00:18:32;;;;;;;;;;;;;;;0.36;89.67;96368.31;5096548;28;19950;-73
2021/11/30 00:20:58;;;;;;;;;;;;;;;0.41;89.83;96368.66;5096603;28;20455;-73
2021/11/30 00:23:24;;;;;;;;;;;;;;;0.42;89.64;96369.44;5096692;28;19964;-73
2021/11/30 00:25:50;;;;;;;;;;;;;;;0.43;89.37;96374.47;5095942;28;19962;-73
2021/11/30 00:28:16;;;;;;;;;;;;;;;0.42;89.45;96372.84;5095954;28;19968;-73
2021/11/30 00:30:42;;;;;;;;;;;;;;;0.38;89.33;96369.78;5096117;28;20048;-73
2021/11/30 00:33:08;;;;;;;;;;;;;;;0.37;89.32;96377.66;5096640;28;19947;-73
2021/11/30 00:35:35;;;;;;;;;;;;;;;0.37;89.57;96375.06;5077983;28;19957;-73
2021/11/30 00:38:02;;;;;;;;;;;;;;;0.38;89.47;96371.56;5096084;28;20334;-73
2021/11/30 00:40:28;;;;;;;;;;;;;;;0.42;89.59;96382.34;5095050;28;19964;-73
2021/11/30 00:42:56;;;;;;;;;;;;;;;0.44;89.21;96388.97;5096149;28;19959;-73
2021/11/30 00:45:24;;;;;;;;;;;;;;;0.44;89.34;96381.22;5095662;28;19959;-73
2021/11/30 00:48:06;;;;;;;;;;;;;;;0.45;88.93;96384.63;5095592;28;19977;-73
2021/11/30 00:50:32;;;;;;;;;;;;;;;0.42;89.08;96388.34;5095840;28;19951;-73
2021/11/30 00:52:58;;;;;;;;;;;;;;;0.38;89.24;96382.66;5095712;28;19960;-74
2021/11/30 00:55:24;;;;;;;;;;;;;;;0.37;88.90;96378.47;5094486;28;20023;-74
2021/11/30 00:57:50;;;;;;;;;;;;;;;0.38;88.66;96392.19;5094708;28;20391;-73
2021/11/30 01:00:18;;;;;;;;;;;;;;;0.36;89.17;96394.91;5095137;28;19953;-73
2021/11/30 01:02:45;;;;;;;;;;;;;;;0.37;88.96;96393.13;5095406;28;19948;-73
2021/11/30 01:05:13;;;;;;;;;;;;;;;0.38;89.40;96395.56;5095724;28;20033;-73
2021/11/30 01:07:39;;;;;;;;;;;;;;;0.37;89.10;96393.94;5094979;28;19970;-73
2021/11/30 01:10:07;;;;;;;;;;;;;;;0.38;88.85;96389.59;5094207;28;19960;-73
2021/11/30 01:12:33;;;;;;;;;;;;;;;0.37;88.58;96400.88;5095179;28;19966;-75
2021/11/30 01:14:59;;;;;;;;;;;;;;;0.35;88.70;96395.06;5095471;28;19963;-74
2021/11/30 01:17:25;;;;;;;;;;;;;;;0.31;89.08;96391.97;5095371;28;19954;-74
2021/11/30 01:19:51;;;;;;;;;;;;;;;0.29;88.85;96391.31;5095090;28;20000;-74
2021/11/30 01:22:17;;;;;;;;;;;;;;;0.28;88.99;96396.66;5095072;28;20004;-74
2021/11/30 01:24:43;;;;;;;;;;;;;;;0.26;89.02;96409.69;5095144;28;20415;-74
2021/11/30 01:27:08;;;;;;;;;;;;;;;0.22;89.03;96398.06;5095316;28;19970;-74
2021/11/30 01:29:34;;;;;;;;;;;;;;;0.18;89.64;96391.59;5094068;28;19960;-74
2021/11/30 01:32:00;;;;;;;;;;;;;;;0.15;89.25;96400.47;5094749;28;19958;-74
2021/11/30 01:34:26;;;;;;;;;;;;;;;0.12;89.31;96397.38;5094831;28;20051;-74
2021/11/30 01:36:53;;;;;;;;;;;;;;;0.11;89.12;96400.94;5094620;28;20048;-74
2021/11/30 01:39:19;;;;;;;;;;;;;;;0.10;88.93;96407.03;5094836;28;19960;-74
2021/11/30 01:41:45;;;;;;;;;;;;;;;0.09;88.92;96413.16;5094532;28;19961;-74
2021/11/30 01:44:32;;;;;;;;;;;;;;;0.09;88.81;96419.13;5094863;28;20460;-74
2021/11/30 01:49:57;;;;;;;;;;;;;;;0.09;88.91;96420.91;5094572;28;20030;-72
2021/11/30 01:52:17;;;;;;;;;;;;;;;0.07;89.00;96425.41;5069052;28;19974;-74
2021/11/30 01:54:44;;;;;;;;;;;;;;;0.07;88.74;96420.25;5094305;28;19984;-72
2021/11/30 01:57:12;;;;;;;;;;;;;;;0.06;88.62;96421.19;5094482;28;20325;-74
2021/11/30 01:59:38;;;;;;;;;;;;;;;0.05;88.55;96428.13;5094302;28;19954;-74
2021/11/30 02:02:04;;;;;;;;;;;;;;;0.07;88.31;96423.63;5094580;28;19951;-74
2021/11/30 02:04:30;;;;;;;;;;;;;;;0.08;87.71;96430.38;5094396;28;19957;-74
2021/11/30 02:06:56;;;;;;;;;;;;;;;0.08;87.70;96427.00;5094232;28;19956;-74
2021/11/30 02:09:22;;;;;;;;;;;;;;;0.07;87.61;96426.19;5093812;28;19948;-74
2021/11/30 02:11:48;;;;;;;;;;;;;;;0.07;86.60;96433.13;5094460;28;19963;-74
2021/11/30 02:14:14;;;;;;;;;;;;;;;0.05;86.92;96420.38;5094300;28;19954;-74
2021/11/30 02:16:40;;;;;;;;;;;;;;;0.06;86.64;96429.72;5094014;28;20392;-74
2021/11/30 02:19:06;;;;;;;;;;;;;;;0.07;86.77;96436.50;5093129;28;19958;-74
2021/11/30 02:21:36;;;;;;;;;;;;;;;0.06;86.34;96437.47;5076139;28;19948;-74
2021/11/30 02:24:02;;;;;;;;;;;;;;;0.07;86.20;96441.66;5094111;28;19962;-74
2021/11/30 02:26:29;;;;;;;;;;;;;;;0.06;86.64;96428.91;5094052;28;20064;-74
2021/11/30 02:28:58;;;;;;;;;;;;;;;0.07;86.32;96435.72;5093827;28;19963;-74
2021/11/30 02:31:29;;;;;;;;;;;;;;;0.05;86.21;96433.28;5076670;28;19960;-74
2021/11/30 02:33:55;;;;;;;;;;;;;;;0.07;85.76;96438.28;5093510;28;19964;-74
2021/11/30 02:36:25;;;;;;;;;;;;;;;0.06;86.05;96445.19;5093912;28;19959;-74
2021/11/30 02:38:52;;;;;;;;;;;;;;;0.08;85.92;96437.31;5093688;28;19959;-74
2021/11/30 02:41:18;;;;;;;;;;;;;;;0.09;85.11;96438.94;5093781;28;20319;-75
2021/11/30 02:43:44;;;;;;;;;;;;;;;0.12;85.62;96433.47;5093870;28;19952;-75
2021/11/30 02:46:10;;;;;;;;;;;;;;;0.15;85.01;96438.34;5093552;28;19957;-75
2021/11/30 02:48:36;;;;;;;;;;;;;;;0.16;85.05;96447.69;5093601;28;20351;-75
2021/11/30 02:51:06;;;;;;;;;;;;;;;0.18;85.16;96451.72;5092678;28;19949;-75
2021/11/30 02:53:32;;;;;;;;;;;;;;;0.18;84.62;96446.56;5093851;28;19964;-75
2021/11/30 02:55:57;;;;;;;;;;;;;;;0.18;84.22;96451.72;5093713;28;19964;-75
2021/11/30 02:58:23;;;;;;;;;;;;;;;0.19;85.02;96449.97;5093755;28;19959;-75
2021/11/30 03:00:49;;;;;;;;;;;;;;;0.18;84.53;96456.88;5093496;28;20052;-75
2021/11/30 03:03:15;;;;;;;;;;;;;;;0.21;84.63;96450.63;5094106;28;19970;-75
2021/11/30 03:05:41;;;;;;;;;;;;;;;0.23;84.69;96458.19;5093750;28;19965;-73
2021/11/30 03:08:07;;;;;;;;;;;;;;;0.23;84.98;96459.00;5075496;28;19969;-73
2021/11/30 03:10:33;;;;;;;;;;;;;;;0.21;84.77;96450.63;5093313;28;19963;-74
2021/11/30 03:12:59;;;;;;;;;;;;;;;0.20;84.55;96451.56;5093542;28;20432;-74
2021/11/30 03:15:25;;;;;;;;;;;;;;;0.18;84.63;96446.56;5093448;28;19987;-74
2021/11/30 03:17:52;;;;;;;;;;;;;;;0.15;84.85;96454.63;5093212;28;20405;-74
2021/11/30 03:20:18;;;;;;;;;;;;;;;0.14;84.58;96452.97;5093224;28;19960;-74
2021/11/30 03:22:46;;;;;;;;;;;;;;;0.14;84.48;96450.41;5096298;28;19958;-74
2021/11/30 03:25:13;;;;;;;;;;;;;;;0.16;84.57;96450.25;5097163;28;19949;-74
2021/11/30 03:27:38;;;;;;;;;;;;;;;0.18;84.58;96450.91;5097241;28;19960;-74
2021/11/30 03:30:06;;;;;;;;;;;;;;;0.17;84.74;96442.38;5097162;28;20414;-74
2021/11/30 03:35:16;;;;;;;;;;;;;;;0.15;85.04;96448.66;5096409;28;19952;-74
2021/11/30 03:37:42;;;;;;;;;;;;;;;0.15;85.10;96446.06;5097183;28;20046;-74
2021/11/30 03:40:11;;;;;;;;;;;;;;;0.14;85.21;96440.09;5096972;28;19953;-75
2021/11/30 03:42:38;;;;;;;;;;;;;;;0.11;84.85;96437.81;5097039;28;20412;-74
2021/11/30 03:45:05;;;;;;;;;;;;;;;0.09;85.08;96441.53;5097001;28;19957;-74
2021/11/30 03:47:31;;;;;;;;;;;;;;;0.08;85.44;96439.91;5096735;28;19952;-74
2021/11/30 03:49:57;;;;;;;;;;;;;;;0.08;85.24;96435.53;5096745;28;19962;-74
2021/11/30 03:52:23;;;;;;;;;;;;;;;0.07;85.49;96435.72;5096973;28;20028;-74
2021/11/30 03:54:49;;;;;;;;;;;;;;;0.05;85.30;96435.06;5096655;28;19989;-74
2021/11/30 03:57:14;;;;;;;;;;;;;;;0.06;85.41;96434.06;5095702;28;19971;-74
2021/11/30 03:59:40;;;;;;;;;;;;;;;0.08;84.95;96427.00;5096984;28;20329;-74
2021/11/30 04:02:06;;;;;;;;;;;;;;;0.07;85.40;96423.63;5096757;28;20047;-74
2021/11/30 04:04:41;;;;;;;;;;;;;;;0.07;85.16;96415.09;5096532;28;20405;-77
2021/11/30 04:07:07;;;;;;;;;;;;;;;0.08;85.03;96419.25;5095935;28;19958;-74
2021/11/30 04:09:32;;;;;;;;;;;;;;;0.06;85.27;96405.72;5096368;28;20497;-74
2021/11/30 04:11:58;;;;;;;;;;;;;;;0.05;84.97;96404.13;5096478;28;20441;-74
2021/11/30 04:14:25;;;;;;;;;;;;;;;0.04;85.37;96410.22;5096743;28;19959;-73
2021/11/30 04:16:51;;;;;;;;;;;;;;;0.06;85.30;96413.44;5095214;28;19982;-74
2021/11/30 04:19:17;;;;;;;;;;;;;;;0.06;85.32;96424.56;5096389;28;20413;-73
2021/11/30 04:21:43;;;;;;;;;;;;;;;0.07;85.08;96420.25;5096376;28;19959;-74
2021/11/30 04:24:09;;;;;;;;;;;;;;;0.07;85.23;96420.25;5096156;28;19964;-73
2021/11/30 04:26:35;;;;;;;;;;;;;;;0.07;84.76;96415.88;5096416;28;19961;-73
2021/11/30 04:29:01;;;;;;;;;;;;;;;0.08;84.74;96414.09;5096043;28;19984;-74
2021/11/30 04:31:28;;;;;;;;;;;;;;;0.02;84.86;96407.78;5096146;28;19958;-73
2021/11/30 04:33:54;;;;;;;;;;;;;;;0.01;84.66;96407.97;5095860;28;19964;-73
2021/11/30 04:36:20;;;;;;;;;;;;;;;0.01;84.39;96403.59;5095955;28;19956;-73
2021/11/30 04:38:46;;;;;;;;;;;;;;;0.02;84.56;96404.41;5096361;28;19959;-73
2021/11/30 04:41:12;;;;;;;;;;;;;;;0.00;84.52;96407.16;5095596;28;19955;-73
2021/11/30 04:43:38;;;;;;;;;;;;;;;-0.05;84.53;96397.28;5095889;28;19967;-73
2021/11/30 04:46:28;;;;;;;;;;;;;;;-0.09;84.47;96403.69;5095875;28;20044;-73
2021/11/30 04:51:20;;;;;;;;;;;;;;;-0.21;84.94;96400.59;5077796;28;20415;-73
2021/11/30 04:53:46;;;;;;;;;;;;;;;-0.22;85.01;96393.78;5095540;28;20068;-73
2021/11/30 04:56:16;;;;;;;;;;;;;;;-0.20;85.28;96388.50;5095708;28;20057;-73
2021/11/30 04:58:42;;;;;;;;;;;;;;;-0.19;85.34;96389.31;5095760;28;19966;-74
2021/11/30 05:01:09;;;;;;;;;;;;;;;-0.19;84.99;96386.72;5095561;28;19960;-75
2021/11/30 05:03:34;;;;;;;;;;;;;;;-0.19;84.83;96384.16;5095405;28;20343;-73
2021/11/30 05:06:01;;;;;;;;;;;;;;;-0.18;85.51;96375.47;5095291;28;19953;-73
2021/11/30 05:08:27;;;;;;;;;;;;;;;-0.16;85.14;96368.38;5095329;28;20473;-73
2021/11/30 05:10:53;;;;;;;;;;;;;;;-0.16;84.99;96379.50;5095298;28;19963;-73
2021/11/30 05:13:19;;;;;;;;;;;;;;;-0.16;85.55;96369.19;5095087;28;20010;-74
2021/11/30 05:15:45;;;;;;;;;;;;;;;-0.14;85.84;96372.44;5095209;28;19961;-73
2021/11/30 05:18:11;;;;;;;;;;;;;;;-0.16;85.86;96370.97;5095490;28;19962;-74
2021/11/30 05:20:37;;;;;;;;;;;;;;;-0.18;86.02;96368.53;5063917;28;19953;-73
2021/11/30 05:23:03;;;;;;;;;;;;;;;-0.24;86.26;96369.94;5095216;28;19963;-73
2021/11/30 05:25:37;;;;;;;;;;;;;;;-0.28;86.77;96360.09;5095013;28;19975;-73
2021/11/30 05:28:05;;;;;;;;;;;;;;;-0.33;87.30;96352.84;5095201;28;19979;-74
2021/11/30 05:30:38;;;;;;;;;;;;;;;-0.38;87.12;96344.72;5094695;28;19971;-74
2021/11/30 05:33:07;;;;;;;;;;;;;;;-0.39;87.24;96345.69;5063591;28;19960;-73
2021/11/30 05:35:34;;;;;;;;;;;;;;;-0.44;87.32;96353.91;5095005;28;20339;-74
2021/11/30 05:38:00;;;;;;;;;;;;;;;-0.48;87.85;96349.19;5094836;28;19950;-73
2021/11/30 05:40:26;;;;;;;;;;;;;;;-0.50;88.12;96353.69;5094603;28;19954;-74
2021/11/30 05:42:52;;;;;;;;;;;;;;;-0.52;88.40;96358.19;5094684;28;19955;-74
2021/11/30 05:45:19;;;;;;;;;;;;;;;-0.54;88.56;96350.59;5094203;28;19954;-73
2021/11/30 05:47:45;;;;;;;;;;;;;;;-0.51;88.84;96352.06;5094441;28;19959;-73
2021/11/30 05:50:11;;;;;;;;;;;;;;;-0.57;88.58;96345.72;5094535;28;20356;-73
2021/11/30 05:52:37;;;;;;;;;;;;;;;-0.57;88.74;96347.50;5094360;28;19967;-73
2021/11/30 05:55:04;;;;;;;;;;;;;;;-0.56;89.04;96331.91;5094323;28;19984;-74
2021/11/30 05:57:31;;;;;;;;;;;;;;;-0.54;88.93;96335.16;5062866;28;19959;-74
2021/11/30 05:59:59;;;;;;;;;;;;;;;-0.55;88.53;96328.38;5094501;28;19976;-74
2021/11/30 06:02:26;;;;;;;;;;;;;;;-0.52;88.33;96332.44;5094257;28;20307;-73
2021/11/30 06:04:51;;;;;;;;;;;;;;;-0.51;88.26;96323.72;5076575;28;19954;-73
2021/11/30 06:07:17;;;;;;;;;;;;;;;-0.49;87.74;96322.59;5094328;28;19960;-73
2021/11/30 06:09:43;;;;;;;;;;;;;;;-0.48;87.83;96331.97;5094133;28;19972;-76
2021/11/30 06:12:10;;;;;;;;;;;;;;;-0.48;87.77;96323.44;5094176;28;19955;-74
2021/11/30 06:14:36;;;;;;;;;;;;;;;-0.48;87.57;96326.00;5094114;28;20338;-74
2021/11/30 06:17:02;;;;;;;;;;;;;;;-0.46;87.60;96329.25;5094064;28;20324;-74
2021/11/30 06:19:28;;;;;;;;;;;;;;;-0.44;86.75;96324.75;5094174;28;19954;-74
2021/11/30 06:21:54;;;;;;;;;;;;;;;-0.45;87.06;96323.13;5093920;28;19958;-74
2021/11/30 06:24:20;;;;;;;;;;;;;;;-0.45;86.82;96316.19;5094458;28;20283;-74
2021/11/30 06:26:48;;;;;;;;;;;;;;;-0.45;86.96;96311.03;5094028;28;20402;-73
2021/11/30 06:29:14;;;;;;;;;;;;;;;-0.43;86.81;96311.69;5093698;28;19967;-73
2021/11/30 06:31:40;;;;;;;;;;;;;;;-0.45;86.44;96307.66;5094056;28;19959;-74
2021/11/30 06:34:06;;;;;;;;;;;;;;;-0.45;87.19;96311.03;5094128;28;20015;-75
2021/11/30 06:36:32;;;;;;;;;;;;;;;-0.43;86.77;96303.97;5093892;28;20038;-74
2021/11/30 06:38:58;;;;;;;;;;;;;;;-0.43;86.96;96308.31;5093790;28;19962;-74
2021/11/30 06:41:24;;;;;;;;;;;;;;;-0.45;87.15;96303.31;5075694;28;19952;-74
2021/11/30 06:43:50;;;;;;;;;;;;;;;-0.46;87.10;96304.28;5093617;28;19946;-74
2021/11/30 06:46:19;;;;;;;;;;;;;;;-0.45;86.81;96308.47;5093731;28;19986;-74
2021/11/30 06:48:45;;;;;;;;;;;;;;;-0.44;86.88;96292.06;5093917;28;19967;-76
2021/11/30 06:51:11;;;;;;;;;;;;;;;-0.46;86.96;96298.34;5093520;28;20078;-74
2021/11/30 06:53:37;;;;;;;;;;;;;;;-0.50;86.59;96292.66;5093136;28;19997;-73
2021/11/30 06:56:03;;;;;;;;;;;;;;;-0.52;87.05;96286.06;5095219;28;19958;-73
2021/11/30 06:58:29;;;;;;;;;;;;;;;-0.51;87.44;96290.25;5097924;28;19971;-73
2021/11/30 07:00:55;;;;;;;;;;;;;;;-0.49;87.72;96291.69;5097963;28;20012;-73
2021/11/30 07:03:22;;;;;;;;;;;;;;;-0.49;87.67;96283.97;5096647;28;20427;-73
2021/11/30 07:05:53;;;;;;;;;;;;;;;-0.51;87.88;96275.59;5097575;28;19952;-74
2021/11/30 07:08:21;;;;;;;;;;;;;;;-0.52;88.39;96271.41;5097821;28;19952;-74
2021/11/30 07:11:00;;;;;;;;;;;;;;;-0.54;87.70;96278.47;5097716;28;19954;-74
2021/11/30 07:13:31;;;;;;;;;;;;;;;-0.58;88.59;96278.94;5097734;28;19970;-74
2021/11/30 07:15:59;;;;;;;;;;;;;;;-0.65;88.97;96276.13;5097583;28;19962;-74
2021/11/30 07:18:25;;;;;;;;;;;;;;;-0.68;89.02;96287.56;5097409;28;19949;-73
2021/11/30 07:20:52;;;;;;;;;;;;;;;-0.71;89.19;96282.72;5097307;28;19966;-74
2021/11/30 07:23:18;;;;;;;;;;;;;;;-0.71;89.28;96287.06;5097371;28;19955;-74
2021/11/30 07:25:44;;;;;;;;;;;;;;;-0.70;89.05;96283.53;5097632;28;20330;-73
2021/11/30 07:28:10;;;;;;;;;;;;;;;-0.68;88.74;96282.41;5096300;28;19960;-73
2021/11/30 07:30:37;;;;;;;;;;;;;;;-0.67;88.93;96272.94;5096459;28;19961;-73
2021/11/30 07:33:03;;;;;;;;;;;;;;;-0.68;88.98;96274.69;5097110;28;19968;-74
2021/11/30 07:35:30;;;;;;;;;;;;;;;-0.70;88.66;96266.31;5088308;28;19980;-74
2021/11/30 07:37:56;;;;;;;;;;;;;;;-0.66;88.80;96272.75;5069218;28;20422;-74
2021/11/30 07:40:22;;;;;;;;;;;;;;;-0.64;88.66;96252.03;5097359;28;20320;-73
2021/11/30 07:42:48;;;;;;;;;;;;;;;-0.61;87.92;96254.28;5097093;28;19956;-74
2021/11/30 07:45:15;;;;;;;;;;;;;;;-0.60;87.69;96249.97;5097077;28;19953;-73
2021/11/30 07:47:41;;;;;;;;;;;;;;;-0.57;88.05;96245.28;5096114;28;20326;-74
2021/11/30 07:50:08;;;;;;;;;;;;;;;-0.53;88.00;96245.78;5096757;28;19967;-73
2021/11/30 07:52:40;;;;;;;;;;;;;;;-0.48;87.47;96254.69;5095992;28;19960;-74
2021/11/30 07:55:07;;;;;;;;;;;;;;;-0.44;87.41;96244.91;5095999;28;20005;-76
2021/11/30 07:57:33;;;;;;;;;;;;;;;-0.43;87.34;96241.34;5096843;28;19964;-73
2021/11/30 07:59:59;;;;;;;;;;;;;;;-0.43;86.74;96244.72;5096643;28;19970;-74
2021/11/30 08:02:25;;;;;;;;;;;;;;;-0.40;87.36;96248.75;5097006;28;20309;-73
2021/11/30 08:04:51;;;;;;;;;;;;;;;-0.35;87.08;96251.69;5096563;28;19960;-74
2021/11/30 08:07:18;;;;;;;;;;;;;;;-0.33;85.92;96243.81;5096073;28;19949;-73
2021/11/30 08:09:47;;;;;;;;;;;;;;;-0.30;86.78;96236.56;5096374;28;19980;-73
2021/11/30 08:12:13;;;;;;;;;;;;;;;-0.27;86.55;96225.97;5096533;28;19955;-73
2021/11/30 08:14:39;;;;;;;;;;;;;;;-0.30;86.20;96223.69;5096438;28;19962;-73
2021/11/30 08:17:12;;;;;;;;;;;;;;;-0.28;86.42;96228.69;5096454;28;20412;-73
2021/11/30 08:19:39;;;;;;;;;;;;;;;-0.28;85.94;96214.03;5096132;28;19958;-73
2021/11/30 08:22:04;;;;;;;;;;;;;;;-0.27;85.58;96218.22;5096300;28;19952;-73
2021/11/30 08:24:30;;;;;;;;;;;;;;;-0.23;85.77;96206.66;5096184;28;20020;-73
2021/11/30 08:26:56;;;;;;;;;;;;;;;-0.19;85.86;96214.84;5096150;28;19959;-73
2021/11/30 08:29:22;;;;;;;;;;;;;;;-0.16;85.78;96216.34;5096229;28;19965;-73
2021/11/30 08:31:48;;;;;;;;;;;;;;;-0.16;84.85;96211.19;5096365;28;20413;-73
2021/11/30 08:34:14;;;;;;;;;;;;;;;-0.13;85.19;96201.34;5095933;28;20017;-73
2021/11/30 08:36:40;;;;;;;;;;;;;;;-0.07;85.15;96202.50;5096254;28;19953;-73
2021/11/30 08:39:06;;;;;;;;;;;;;;;-0.04;85.28;96213.31;5096130;28;19961;-73
2021/11/30 08:41:32;;;;;;;;;;;;;;;-0.03;83.98;96207.16;5095807;28;19958;-71
2021/11/30 08:43:58;;;;;;;;;;;;;;;0.25;85.85;96208.69;5095780;28;19960;-74
2021/11/30 08:46:24;;;;;;;;;;;;;;;0.32;84.17;96196.78;5096053;28;20328;-74
2021/11/30 08:48:50;;;;;;;;;;;;;;;0.35;83.58;96199.81;5094588;28;19988;-74
2021/11/30 08:51:16;;;;;;;;;;;;;;;0.34;82.84;96192.28;5095783;28;19946;-74
2021/11/30 08:53:42;;;;;;;;;;;;;;;0.32;82.80;96187.25;5095412;28;20026;-74
2021/11/30 08:56:09;;;;;;;;;;;;;;;0.31;83.22;96184.84;5095865;28;19952;-74
2021/11/30 08:58:35;;;;;;;;;;;;;;;0.29;83.20;96187.56;5077299;28;19961;-74
2021/11/30 09:01:01;;;;;;;;;;;;;;;0.35;83.68;96188.72;5095026;28;19962;-74
2021/11/30 09:03:28;;;;;;;;;;;;;;;0.35;83.52;96186.94;5095463;28;19978;-74
2021/11/30 09:05:55;;;;;;;;;;;;;;;0.35;83.40;96191.28;5095329;28;20349;-74
2021/11/30 09:08:21;;;;;;;;;;;;;;;0.39;83.66;96195.16;5095558;28;19959;-74
2021/11/30 09:10:47;;;;;;;;;;;;;;;0.41;84.09;96190.66;5095187;28;20050;-74
2021/11/30 09:13:13;;;;;;;;;;;;;;;0.45;83.85;96183.41;5095725;28;19956;-74
2021/11/30 09:15:40;;;;;;;;;;;;;;;0.46;83.81;96180.66;5095200;28;20385;-75
2021/11/30 09:18:06;;;;;;;;;;;;;;;0.49;83.38;96176.97;5095281;28;19961;-74
2021/11/30 09:20:32;;;;;;;;;;;;;;;0.48;83.29;96173.56;5093424;28;20402;-75
2021/11/30 09:22:59;;;;;;;;;;;;;;;0.49;83.83;96172.59;5095060;28;20047;-75
2021/11/30 09:25:25;;;;;;;;;;;;;;;0.51;83.76;96180.97;5095181;28;19966;-75
2021/11/30 09:27:52;;;;;;;;;;;;;;;0.53;83.77;96176.47;5094974;28;19962;-75
2021/11/30 09:30:19;;;;;;;;;;;;;;;0.57;83.83;96185.50;5095563;28;19973;-74
2021/11/30 09:32:45;;;;;;;;;;;;;;;0.60;83.38;96174.03;5094848;28;19952;-74
2021/11/30 09:35:13;;;;;;;;;;;;;;;0.65;83.67;96170.97;5093942;28;19952;-74
2021/11/30 09:37:39;;;;;;;;;;;;;;;0.65;83.72;96156.31;5094877;28;19951;-74
2021/11/30 09:40:09;;;;;;;;;;;;;;;0.67;83.25;96162.09;5094749;28;19959;-74
2021/11/30 09:42:35;;;;;;;;;;;;;;;0.70;83.11;96166.16;5094794;28;20006;-74
2021/11/30 09:45:04;;;;;;;;;;;;;;;0.72;83.72;96161.63;5094589;28;19949;-74
2021/11/30 09:47:30;;;;;;;;;;;;;;;0.76;83.60;96152.59;5094670;28;19949;-74
2021/11/30 09:49:57;;;;;;;;;;;;;;;0.80;83.48;96159.84;5094582;28;19970;-74
2021/11/30 09:52:23;;;;;;;;;;;;;;;0.82;83.00;96154.53;5094540;28;20318;-74
2021/11/30 09:54:49;;;;;;;;;;;;;;;0.82;83.94;96151.94;5093561;28;20001;-75
2021/11/30 09:57:15;;;;;;;;;;;;;;;0.85;82.68;96151.59;5094524;28;20007;-75
2021/11/30 09:59:46;;;;;;;;;;;;;;;0.84;82.32;96149.16;5094520;28;19958;-75
2021/11/30 10:02:12;;;;;;;;;;;;;;;0.85;82.47;96149.00;5094431;28;19966;-75
2021/11/30 10:04:39;;;;;;;;;;;;;;;0.81;82.54;96145.16;5094677;28;19963;-75
2021/11/30 10:07:06;;;;;;;;;;;;;;;0.81;82.70;96153.69;5094336;28;19959;-75
2021/11/30 10:09:32;;;;;;;;;;;;;;;0.83;82.98;96156.13;5094423;28;19973;-75
2021/11/30 10:12:00;;;;;;;;;;;;;;;0.84;82.68;96139.69;5093248;28;19961;-76
2021/11/30 10:14:34;;;;;;;;;;;;;;;0.87;82.74;96144.50;5094388;28;20346;-75
2021/11/30 10:17:09;;;;;;;;;;;;;;;0.86;82.30;96135.16;5094471;28;19956;-76
2021/11/30 10:19:35;;;;;;;;;;;;;;;0.88;82.67;96116.91;5094187;28;19974;-76
2021/11/30 10:22:01;;;;;;;;;;;;;;;0.86;82.86;96121.41;5094141;28;19953;-75
2021/11/30 10:24:26;;;;;;;;;;;;;;;0.87;83.06;96118.69;5094333;28;19959;-75
2021/11/30 10:26:57;;;;;;;;;;;;;;;0.91;82.83;96119.16;5094067;28;19995;-75
2021/11/30 10:29:24;;;;;;;;;;;;;;;0.93;83.10;96112.06;5094128;28;20314;-75
2021/11/30 10:31:54;;;;;;;;;;;;;;;0.98;84.11;96115.75;5093724;28;19954;-75
2021/11/30 10:34:28;;;;;;;;;;;;;;;1.02;82.71;96111.06;5093825;28;19951;-75
2021/11/30 10:36:59;;;;;;;;;;;;;;;0.98;82.54;96102.81;5093973;28;19953;-75
2021/11/30 10:39:29;;;;;;;;;;;;;;;0.97;82.92;96098.66;5094101;28;20416;-75
2021/11/30 10:42:14;;;;;;;;;;;;;;;0.95;82.67;96104.97;5093210;28;19959;-75
2021/11/30 10:44:40;;;;;;;;;;;;;;;0.92;82.71;96098.31;5068619;28;19958;-75
2021/11/30 10:47:07;;;;;;;;;;;;;;;0.92;82.71;96107.84;5093947;28;19953;-75
2021/11/30 10:49:34;;;;;;;;;;;;;;;0.92;82.96;96100.91;5094231;28;20328;-75
2021/11/30 10:52:00;;;;;;;;;;;;;;;0.93;83.21;96112.84;5093590;28;19955;-75
2021/11/30 10:54:34;;;;;;;;;;;;;;;0.92;83.74;96100.91;5075705;28;19983;-75
2021/11/30 10:57:03;;;;;;;;;;;;;;;1.15;84.92;96093.25;5093759;28;19956;-75
2021/11/30 10:59:30;;;;;;;;;;;;;;;1.19;83.12;96101.47;5092564;28;19971;-75
2021/11/30 11:01:56;;;;;;;;;;;;;;;1.12;83.01;96072.94;5093706;28;19951;-74
2021/11/30 11:04:29;;;;;;;;;;;;;;;1.06;86.45;96078.75;5093229;28;19963;-75
2021/11/30 11:07:04;;;;;;;;;;;;;;;1.27;94.12;96078.19;5075728;28;19961;-75
2021/11/30 11:09:52;;;;;;;;;;;;;;;1.98;99.25;96071.16;5093314;28;19961;-75
2021/11/30 11:12:27;;;;;;;;;;;;;;;2.29;81.68;96070.28;5093791;28;20029;-75
2021/11/30 11:14:55;;;;;;;;;;;;;;;2.09;80.67;96071.72;5093617;28;20437;-75
2021/11/30 11:17:26;;;;;;;;;;;;;;;1.87;81.26;96081.91;5093415;28;19966;-75
2021/11/30 11:19:52;;;;;;;;;;;;;;;1.60;82.27;96078.03;5093234;28;19968;-75
2021/11/30 11:22:19;;;;;;;;;;;;;;;1.39;82.83;96070.88;5093136;28;19959;-75
2021/11/30 11:24:50;;;;;;;;;;;;;;;1.19;84.02;96076.44;5093408;28;20298;-75
2021/11/30 11:27:17;;;;;;;;;;;;;;;1.07;84.93;96061.50;5093811;28;19962;-75
2021/11/30 11:29:44;;;;;;;;;;;;;;;1.00;85.56;96053.63;5093388;28;19965;-75
2021/11/30 11:32:10;;;;;;;;;;;;;;;0.95;86.18;96051.53;5093195;28;19974;-75
2021/11/30 11:34:37;;;;;;;;;;;;;;;0.90;86.58;96047.84;5093290;28;19957;-75
2021/11/30 11:37:10;;;;;;;;;;;;;;;0.88;87.00;96045.41;5093293;28;19946;-75
2021/11/30 11:39:37;;;;;;;;;;;;;;;0.86;86.99;96043.97;5093173;28;19957;-75
2021/11/30 11:42:04;;;;;;;;;;;;;;;0.81;87.58;96044.47;5093307;28;19954;-75
2021/11/30 11:44:30;;;;;;;;;;;;;;;0.79;87.79;96047.22;5078829;28;19968;-74
2021/11/30 11:47:15;;;;;;;;;;;;;;;0.74;88.18;96039.19;5097109;28;19958;-76
2021/11/30 11:49:44;;;;;;;;;;;;;;;0.80;88.96;96040.31;5082746;28;19976;-75
2021/11/30 11:52:21;;;;;;;;;;;;;;;0.81;88.92;96044.47;5096917;28;19965;-75
2021/11/30 11:55:08;;;;;;;;;;;;;;;0.84;88.71;96051.91;5096773;28;19982;-75
2021/11/30 11:57:34;;;;;;;;;;;;;;;0.83;88.92;96052.06;5082621;28;19953;-75
2021/11/30 12:00:13;;;;;;;;;;;;;;;0.81;88.81;96042.69;5096718;28;19957;-75
2021/11/30 12:02:47;;;;;;;;;;;;;;;0.83;88.97;96042.53;5081970;28;19958;-75
2021/11/30 12:05:13;;;;;;;;;;;;;;;0.84;89.10;96036.41;5096673;28;19949;-75
2021/11/30 12:07:51;;;;;;;;;;;;;;;0.83;88.88;96034.78;5078774;28;20000;-75
2021/11/30 12:10:19;;;;;;;;;;;;;;;0.84;89.04;96040.75;5066717;28;19971;-75
2021/11/30 12:13:00;;;;;;;;;;;;;;;0.82;89.66;96040.94;5096401;28;19964;-75
2021/11/30 12:15:34;;;;;;;;;;;;;;;0.84;89.27;96040.75;5097073;28;19959;-75
2021/11/30 12:18:23;;;;;;;;;;;;;;;0.85;89.34;96045.75;5096510;28;20319;-75
2021/11/30 12:20:49;;;;;;;;;;;;;;;0.86;89.66;96049.97;5085509;28;19964;-76
2021/11/30 12:23:31;;;;;;;;;;;;;;;0.87;89.71;96043.81;5078333;28;19961;-76
2021/11/30 12:25:57;;;;;;;;;;;;;;;0.86;90.08;96049.97;5096384;28;20369;-76
2021/11/30 12:28:36;;;;;;;;;;;;;;;0.85;90.24;96032.84;5096460;28;19956;-75
2021/11/30 12:31:02;;;;;;;;;;;;;;;0.82;90.34;96046.09;5075403;28;19977;-76
2021/11/30 12:33:36;;;;;;;;;;;;;;;0.80;90.85;96050.63;5096019;28;20331;-75
2021/11/30 12:36:06;;;;;;;;;;;;;;;0.79;91.30;96052.38;5096614;28;20031;-75
2021/11/30 12:38:37;;;;;;;;;;;;;;;0.78;91.06;96048.22;5073237;28;19978;-75
2021/11/30 12:41:22;;;;;;;;;;;;;;;0.79;91.36;96054.97;5096107;28;19965;-75
2021/11/30 12:43:51;;;;;;;;;;;;;;;0.80;91.19;96054.00;5072738;28;19953;-75
2021/11/30 12:46:31;;;;;;;;;;;;;;;0.83;91.57;96055.44;5095948;28;19953;-77
2021/11/30 12:48:58;;;;;;;;;;;;;;;0.84;91.72;96054.50;5080695;28;19956;-75
2021/11/30 12:51:33;;;;;;;;;;;;;;;0.86;91.53;96057.72;5094935;28;19973;-76
2021/11/30 12:54:00;;;;;;;;;;;;;;;0.89;92.04;96064.31;5095608;28;19988;-75
2021/11/30 12:56:45;;;;;;;;;;;;;;;0.87;91.56;96059.31;5095766;28;20331;-75
2021/11/30 12:59:11;;;;;;;;;;;;;;;0.86;91.32;96062.88;5095660;28;19964;-75
2021/11/30 13:01:39;;;;;;;;;;;;;;;0.87;91.44;96066.25;5095611;28;19959;-75
2021/11/30 13:04:25;;;;;;;;;;;;;;;0.84;91.87;96056.25;5095598;28;19960;-75